Crotonville, New York
Current Conditions -  °F | °C
As of 2:56 AM on Saturday 25 Oct 2014 (Local Time) from KHPN Reporting Station
Clear Clear  
Wind Chill: 45°   Ceiling: Unl
Heat Index: 45°   Visibility: 10mi
Dew Point: 41°   Wind: 3mph
Humidity: 86%   Direction: 300°WNW
Pressure: 29.84"   Gusts: NA
Location:  41.1949°N, 73.8307°W
Report Text: KHPN 250656Z 30003KT 10SM CLR 07/05 A2984 RMK AO2 SLP107 T00720050
Loading
Personal Weather Stations






























Interactive Weather Map
Tropical Storm Tracking
New forecast layout! Learn more

10-Day Weather Forecast

Advertisements
Track Severe Weather on mobile